Time;durP1;ratioP1;P1;durP2;ratioP2;P2;SDS_P1;SDS_P2;PMS_P1;PMS_P2;Temp;Humidity;BMP_temperature;BMP_pressure;BME280_temperature;BME280_humidity;BME280_pressure;Samples;Min_cycle;Max_cycle;Signal;HPM_P1;HPM_P2
2021/05/20 00:00:47;;;;;;;2.40;1.23;;;;;;;19.28;48.21;101945.16;5073607;28;20112;-67
2021/05/20 00:03:12;;;;;;;3.73;1.50;;;;;;;19.28;48.16;101952.22;5073038;28;20042;-67
2021/05/20 00:05:40;;;;;;;3.10;1.50;;;;;;;19.27;48.24;101947.91;5072597;28;20262;-67
2021/05/20 00:08:05;;;;;;;2.70;1.33;;;;;;;19.26;48.31;101957.63;5072063;28;20031;-67
2021/05/20 00:10:31;;;;;;;2.40;1.20;;;;;;;19.26;48.42;101956.78;5072812;28;20052;-67
2021/05/20 00:12:56;;;;;;;3.05;1.40;;;;;;;19.25;48.49;101963.00;5073236;28;20021;-67
2021/05/20 00:15:22;;;;;;;2.83;1.40;;;;;;;19.21;48.04;101955.28;5072930;28;20032;-67
2021/05/20 00:17:47;;;;;;;3.72;1.30;;;;;;;19.21;48.57;101949.16;5072425;28;20027;-68
2021/05/20 00:20:14;;;;;;;1.90;1.15;;;;;;;19.22;48.25;101950.88;5072948;28;20320;-67
2021/05/20 00:22:39;;;;;;;3.45;1.38;;;;;;;19.20;48.26;101950.09;5072904;28;20043;-67
2021/05/20 00:25:08;;;;;;;3.17;1.55;;;;;;;19.18;48.28;101938.81;5071818;28;20394;-68
2021/05/20 00:27:34;;;;;;;3.72;1.38;;;;;;;19.19;48.21;101946.63;5073051;28;20081;-67
2021/05/20 00:30:06;;;;;;;2.05;1.10;;;;;;;19.18;48.01;101947.59;5073125;28;20024;-68
2021/05/20 00:32:31;;;;;;;2.60;1.40;;;;;;;19.18;48.19;101954.66;5072294;28;20082;-67
2021/05/20 00:34:56;;;;;;;2.88;1.33;;;;;;;19.16;48.28;101952.13;5072902;28;20028;-67
2021/05/20 00:37:22;;;;;;;3.00;1.45;;;;;;;19.16;47.79;101954.75;5072588;28;20021;-68
2021/05/20 00:39:47;;;;;;;3.03;1.33;;;;;;;19.15;47.80;101958.38;5072239;28;20025;-67
2021/05/20 00:42:15;;;;;;;3.17;1.50;;;;;;;19.14;48.05;101953.19;5072694;28;20089;-67
2021/05/20 00:44:54;;;;;;;3.10;1.50;;;;;;;19.13;48.07;101956.78;5072998;28;20131;-66
2021/05/20 00:47:21;;;;;;;4.40;1.63;;;;;;;19.13;47.83;101959.41;5071733;28;20028;-67
2021/05/20 00:49:47;;;;;;;3.30;1.50;;;;;;;19.11;47.72;101956.88;5072635;28;20025;-68
2021/05/20 00:52:16;;;;;;;3.10;1.45;;;;;;;19.11;47.75;101953.41;5072420;28;20032;-68
2021/05/20 00:54:41;;;;;;;3.42;1.60;;;;;;;19.10;47.97;101957.81;5072037;28;20031;-69
2021/05/20 00:57:08;;;;;;;2.50;1.40;;;;;;;19.09;47.97;101958.78;5072475;28;20021;-67
2021/05/20 00:59:33;;;;;;;2.65;1.40;;;;;;;19.07;47.77;101960.66;5072479;28;20111;-68
2021/05/20 01:01:59;;;;;;;2.83;1.38;;;;;;;19.08;47.81;101956.25;5071868;28;20101;-67
2021/05/20 01:04:25;;;;;;;2.85;1.35;;;;;;;19.08;47.59;101956.25;5072044;28;20028;-67
2021/05/20 01:06:54;;;;;;;2.53;1.30;;;;;;;19.07;47.53;101958.03;5072309;28;20416;-66
2021/05/20 01:09:19;;;;;;;2.95;1.50;;;;;;;19.07;47.54;101962.47;5072073;28;20066;-68
2021/05/20 01:11:45;;;;;;;3.30;1.50;;;;;;;19.06;47.66;101968.69;5072786;28;20025;-68
2021/05/20 01:14:12;;;;;;;3.38;1.63;;;;;;;19.06;47.67;101963.41;5071328;28;20028;-67
2021/05/20 01:16:40;;;;;;;3.17;1.65;;;;;;;19.03;47.92;101973.25;5072495;28;20047;-67
2021/05/20 01:19:05;;;;;;;3.22;1.40;;;;;;;19.02;47.29;101970.72;5071806;28;20037;-67
2021/05/20 01:21:34;;;;;;;3.13;1.27;;;;;;;19.01;47.54;101966.41;5071947;28;20107;-68
2021/05/20 01:24:00;;;;;;;2.90;1.45;;;;;;;18.99;47.47;101969.13;5072207;28;20049;-68
2021/05/20 01:26:28;;;;;;;3.28;1.40;;;;;;;18.99;47.54;101969.13;5072336;28;20493;-69
2021/05/20 01:28:53;;;;;;;3.17;1.60;;;;;;;18.99;47.44;101971.78;5071652;28;20036;-68
2021/05/20 01:31:19;;;;;;;3.30;1.50;;;;;;;19.00;47.24;101983.19;5071721;28;20112;-67
2021/05/20 01:34:03;;;;;;;3.10;1.48;;;;;;;18.97;47.59;101978.94;5072243;28;20277;-68
2021/05/20 01:36:34;;;;;;;4.43;1.60;;;;;;;18.96;47.46;101987.84;5072078;28;20020;-67
2021/05/20 01:39:01;;;;;;;3.20;1.52;;;;;;;18.97;47.07;101986.88;5072793;28;20029;-68
2021/05/20 01:41:27;;;;;;;3.40;1.60;;;;;;;18.97;47.31;101983.38;5072503;28;20029;-69
2021/05/20 01:43:52;;;;;;;2.42;1.40;;;;;;;18.96;47.46;101984.31;5071648;28;20031;-68
2021/05/20 01:46:38;;;;;;;3.63;1.52;;;;;;;18.96;47.40;101989.59;5072205;28;20082;-67
2021/05/20 01:49:09;;;;;;;3.30;1.60;;;;;;;18.94;47.46;101984.44;5071254;28;20531;-67
2021/05/20 01:51:41;;;;;;;2.55;1.40;;;;;;;18.94;47.22;101984.44;5072528;28;20031;-66
2021/05/20 01:54:07;;;;;;;2.90;1.40;;;;;;;18.92;47.04;101988.13;5071448;28;20028;-67
2021/05/20 01:56:36;;;;;;;3.00;1.65;;;;;;;18.92;47.13;101988.97;5071301;28;20025;-67
2021/05/20 01:59:02;;;;;;;3.00;1.50;;;;;;;18.89;47.14;101986.53;5071807;28;20099;-68
2021/05/20 02:01:28;;;;;;;3.70;1.70;;;;;;;18.91;47.47;101983.78;5071901;28;20020;-68
2021/05/20 02:03:53;;;;;;;3.78;1.65;;;;;;;18.90;47.30;101988.25;5071307;28;20415;-67
2021/05/20 02:06:24;;;;;;;3.43;1.70;;;;;;;18.90;47.01;101990.00;5071484;28;20024;-67
2021/05/20 02:08:50;;;;;;;3.83;1.88;;;;;;;18.89;46.92;101986.53;5071685;28;20270;-68
2021/05/20 02:11:18;;;;;;;4.35;1.95;;;;;;;18.89;47.17;101988.34;5070738;28;20025;-68
2021/05/20 02:13:44;;;;;;;3.28;1.60;;;;;;;18.87;47.15;101991.09;5071749;28;20032;-66
2021/05/20 02:16:09;;;;;;;3.55;1.80;;;;;;;18.87;46.97;101984.94;5071387;28;20360;-68
2021/05/20 02:18:36;;;;;;;3.03;1.60;;;;;;;18.85;46.97;101983.25;5071452;28;20109;-66
2021/05/20 02:21:01;;;;;;;2.85;1.42;;;;;;;18.85;46.95;101985.91;5071593;28;20033;-68
2021/05/20 02:23:27;;;;;;;2.80;1.52;;;;;;;18.84;47.08;101994.75;5071484;28;20024;-67
2021/05/20 02:25:52;;;;;;;3.58;1.63;;;;;;;18.82;46.97;101990.53;5071013;28;20035;-68
2021/05/20 02:28:18;;;;;;;3.03;1.60;;;;;;;18.83;47.06;101993.06;5071693;28;20418;-67
2021/05/20 02:30:43;;;;;;;3.28;1.52;;;;;;;18.83;46.90;101992.19;5071678;28;20357;-68
2021/05/20 02:33:09;;;;;;;2.97;1.45;;;;;;;18.82;47.13;101991.34;5074062;28;20024;-68
2021/05/20 02:35:35;;;;;;;2.92;1.60;;;;;;;18.82;47.19;101995.81;5075034;28;20043;-68
2021/05/20 02:38:00;;;;;;;2.75;1.45;;;;;;;18.80;46.98;101989.75;5074984;28;20384;-67
2021/05/20 02:40:29;;;;;;;3.15;1.50;;;;;;;18.79;46.97;101988.06;5074074;28;20107;-67
2021/05/20 02:42:54;;;;;;;2.70;1.50;;;;;;;18.80;46.94;101990.63;5074993;28;20021;-67
2021/05/20 02:45:22;;;;;;;3.05;1.50;;;;;;;18.80;46.70;101987.09;5073691;28;20032;-67
2021/05/20 02:47:49;;;;;;;2.63;1.27;;;;;;;18.79;47.23;101994.19;5074816;28;20032;-67
2021/05/20 02:50:17;;;;;;;3.33;1.70;;;;;;;18.77;46.74;101996.09;5074415;28;20468;-68
2021/05/20 02:52:44;;;;;;;2.88;1.40;;;;;;;18.78;46.87;101995.13;5073789;28;20132;-66
2021/05/20 02:55:14;;;;;;;2.33;1.20;;;;;;;18.78;46.68;101989.00;5074186;28;20464;-68
2021/05/20 02:57:42;;;;;;;2.42;1.33;;;;;;;18.77;46.92;101984.66;5074733;28;20463;-67
2021/05/20 03:00:09;;;;;;;2.88;1.40;;;;;;;18.76;46.93;101980.34;5073541;28;20042;-67
2021/05/20 03:02:35;;;;;;;2.80;1.40;;;;;;;18.75;46.65;101983.94;5074454;28;20028;-67
2021/05/20 03:05:10;;;;;;;2.42;1.25;;;;;;;18.75;46.82;101986.56;5074350;28;20441;-67
2021/05/20 03:07:35;;;;;;;2.20;1.25;;;;;;;18.75;46.94;101991.84;5073953;28;20070;-67
2021/05/20 03:10:06;;;;;;;2.72;1.40;;;;;;;18.75;46.93;101990.06;5074666;28;20032;-68
2021/05/20 03:12:35;;;;;;;2.72;1.30;;;;;;;18.74;46.53;102001.59;5074136;28;20336;-67
2021/05/20 03:15:01;;;;;;;1.92;1.10;;;;;;;18.74;46.88;101998.06;5073642;28;20032;-67
2021/05/20 03:17:27;;;;;;;2.63;1.30;;;;;;;18.71;46.84;101996.50;5074201;28;20089;-67
2021/05/20 03:19:52;;;;;;;1.80;1.10;;;;;;;18.72;47.12;101998.16;5074058;28;20023;-67
2021/05/20 03:22:18;;;;;;;2.33;1.30;;;;;;;18.71;47.05;101998.28;5073224;28;20021;-67
2021/05/20 03:24:44;;;;;;;2.47;1.20;;;;;;;18.70;47.03;101997.44;5074037;28;20047;-67
2021/05/20 03:27:09;;;;;;;2.42;1.20;;;;;;;18.70;46.70;101991.31;5073602;28;20025;-67
2021/05/20 03:29:34;;;;;;;1.98;1.17;;;;;;;18.68;46.84;101994.91;5073260;28;20040;-67
2021/05/20 03:32:00;;;;;;;2.08;1.10;;;;;;;18.69;46.79;101993.09;5074101;28;20020;-68
2021/05/20 03:34:25;;;;;;;2.25;1.20;;;;;;;18.65;46.74;101984.53;5073277;28;20032;-67
2021/05/20 03:36:51;;;;;;;2.50;1.30;;;;;;;18.66;46.81;101980.97;5073868;28;20070;-67
2021/05/20 03:39:16;;;;;;;2.72;1.40;;;;;;;18.66;46.50;101994.16;5073495;28;20021;-67
2021/05/20 03:41:42;;;;;;;2.58;1.30;;;;;;;18.66;46.67;101990.69;5072946;28;20028;-68
2021/05/20 03:44:07;;;;;;;1.70;1.10;;;;;;;18.65;46.72;101989.81;5073444;28;20039;-67
2021/05/20 03:46:33;;;;;;;1.90;1.02;;;;;;;18.65;46.82;101987.16;5073637;28;20048;-67
2021/05/20 03:48:58;;;;;;;2.38;1.30;;;;;;;18.65;46.61;101992.44;5072966;28;20036;-68
2021/05/20 03:51:23;;;;;;;3.15;1.48;;;;;;;18.63;46.62;101985.59;5073184;28;20074;-68
2021/05/20 03:53:49;;;;;;;1.73;1.15;;;;;;;18.63;46.75;101994.34;5073652;28;20025;-67
2021/05/20 03:56:15;;;;;;;2.15;1.30;;;;;;;18.63;46.79;101996.16;5072512;28;20025;-67
2021/05/20 03:58:40;;;;;;;2.45;1.20;;;;;;;18.61;46.64;101995.38;5073633;28;20038;-67
2021/05/20 04:01:05;;;;;;;2.00;1.10;;;;;;;18.62;46.64;101989.16;5073186;28;20028;-67
2021/05/20 04:03:32;;;;;;;1.88;1.10;;;;;;;18.62;46.41;101991.81;5072729;28;20024;-67
2021/05/20 04:06:02;;;;;;;2.42;1.40;;;;;;;18.60;46.57;101984.00;5073392;28;20020;-67
2021/05/20 04:08:27;;;;;;;1.70;0.90;;;;;;;18.60;46.82;101989.28;5073164;28;20528;-67
2021/05/20 04:10:54;;;;;;;1.90;1.15;;;;;;;18.58;46.54;101988.53;5072504;28;20024;-67
2021/05/20 04:13:39;;;;;;;1.92;1.02;;;;;;;18.60;46.55;101996.34;5072785;28;20459;-67
2021/05/20 04:16:06;;;;;;;2.38;1.20;;;;;;;18.59;46.40;101998.13;5072724;28;20497;-68
2021/05/20 04:18:32;;;;;;;2.20;1.30;;;;;;;18.59;46.61;101997.28;5072278;28;20485;-69
2021/05/20 04:20:58;;;;;;;2.42;1.30;;;;;;;18.59;46.66;102002.56;5073113;28;20024;-67
2021/05/20 04:23:24;;;;;;;2.22;1.10;;;;;;;18.58;46.49;101996.47;5072551;28;20442;-67
2021/05/20 04:25:50;;;;;;;2.22;1.10;;;;;;;18.58;46.57;101996.47;5072117;28;20375;-67
2021/05/20 04:28:16;;;;;;;2.47;1.30;;;;;;;18.58;46.90;101996.47;5072465;28;20060;-69
2021/05/20 04:30:43;;;;;;;2.03;1.23;;;;;;;18.58;46.74;101995.59;5072210;28;20079;-68
2021/05/20 04:33:08;;;;;;;2.38;1.30;;;;;;;18.57;46.29;101996.56;5072378;28;20021;-67
2021/05/20 04:35:34;;;;;;;2.00;1.20;;;;;;;18.58;46.38;101995.59;5072387;28;20115;-68
2021/05/20 04:38:01;;;;;;;2.20;1.25;;;;;;;18.57;46.56;101996.56;5071829;28;20099;-68
2021/05/20 04:40:26;;;;;;;2.10;1.42;;;;;;;18.55;46.47;101985.22;5072318;28;20029;-68
2021/05/20 04:42:55;;;;;;;2.13;1.13;;;;;;;18.55;46.78;101996.66;5072409;28;20031;-68
2021/05/20 04:45:21;;;;;;;2.40;1.30;;;;;;;18.55;46.44;101998.44;5071512;28;20421;-67
2021/05/20 04:47:49;;;;;;;2.20;1.23;;;;;;;18.55;46.58;102004.56;5072532;28;20063;-67
2021/05/20 04:50:16;;;;;;;2.08;1.20;;;;;;;18.55;46.88;101995.78;5071857;28;20367;-67
2021/05/20 04:52:42;;;;;;;2.85;1.55;;;;;;;18.55;46.62;102003.72;5071542;28;20464;-67
2021/05/20 04:55:09;;;;;;;2.72;1.40;;;;;;;18.54;46.65;101999.38;5071591;28;20115;-68
2021/05/20 04:57:34;;;;;;;3.08;1.42;;;;;;;18.54;46.78;102004.66;5072096;28;20464;-67
2021/05/20 05:00:00;;;;;;;2.65;1.38;;;;;;;18.54;46.58;102002.03;5071526;28;20104;-67
2021/05/20 05:02:26;;;;;;;2.05;1.20;;;;;;;18.54;46.88;102002.03;5072038;28;20032;-67
2021/05/20 05:04:51;;;;;;;2.20;1.30;;;;;;;18.53;46.40;102005.59;5071876;28;20099;-67
2021/05/20 05:07:17;;;;;;;2.60;1.30;;;;;;;18.53;46.39;102005.59;5070568;28;20126;-69
2021/05/20 05:09:42;;;;;;;2.83;1.48;;;;;;;18.53;46.48;102011.72;5071579;28;20028;-67
2021/05/20 05:12:08;;;;;;;2.63;1.40;;;;;;;18.53;46.34;102008.25;5071278;28;20499;-67
2021/05/20 05:14:33;;;;;;;2.58;1.45;;;;;;;18.50;46.68;102009.31;5070863;28;20029;-67
2021/05/20 05:16:59;;;;;;;2.60;1.23;;;;;;;18.52;46.73;102011.81;5071778;28;20017;-68
2021/05/20 05:19:24;;;;;;;2.78;1.50;;;;;;;18.51;46.44;102012.78;5071135;28;20048;-67
2021/05/20 05:21:50;;;;;;;2.60;1.40;;;;;;;18.50;46.74;102006.66;5071914;28;20051;-67
2021/05/20 05:24:16;;;;;;;2.28;1.20;;;;;;;18.53;46.47;102016.16;5071649;28;20057;-70
2021/05/20 05:26:42;;;;;;;2.60;1.33;;;;;;;18.56;46.88;102008.88;5071709;28;20030;-67
2021/05/20 05:29:08;;;;;;;1.85;1.00;;;;;;;18.62;46.61;102012.94;5070576;28;20020;-67
2021/05/20 05:31:33;;;;;;;1.85;0.90;;;;;;;18.67;46.93;102009.06;5071436;28;20100;-65
2021/05/20 05:33:59;;;;;;;1.98;1.10;;;;;;;18.74;46.69;102016.56;5070950;28;20392;-64
2021/05/20 05:36:25;;;;;;;3.05;1.20;;;;;;;18.79;46.83;102006.56;5070896;28;20027;-65
2021/05/20 05:38:51;;;;;;;1.90;1.00;;;;;;;18.86;46.67;102007.88;5069923;28;20491;-67
2021/05/20 05:41:17;;;;;;;2.05;1.10;;;;;;;18.94;46.76;102017.94;5070508;28;20021;-66
2021/05/20 05:43:42;;;;;;;2.22;1.10;;;;;;;19.02;46.22;102023.53;5071402;28;20047;-69
2021/05/20 05:46:08;;;;;;;2.33;1.20;;;;;;;19.08;46.40;102022.31;5071493;28;20025;-65
2021/05/20 05:48:33;;;;;;;3.15;1.10;;;;;;;19.15;46.41;102020.94;5071003;28;20024;-66
2021/05/20 05:50:58;;;;;;;2.05;1.10;;;;;;;19.21;46.27;102023.16;5071703;28;20103;-67
2021/05/20 05:53:24;;;;;;;1.80;1.00;;;;;;;19.24;46.57;102027.41;5071156;28;20144;-67
2021/05/20 05:55:51;;;;;;;2.13;1.10;;;;;;;19.28;46.77;102024.47;5071092;28;20020;-68
2021/05/20 05:58:16;;;;;;;2.45;1.30;;;;;;;19.30;46.36;102019.06;5071192;28;20498;-68
2021/05/20 06:00:42;;;;;;;2.47;1.17;;;;;;;19.35;46.56;102028.38;5071558;28;20107;-68
2021/05/20 06:03:10;;;;;;;2.00;1.10;;;;;;;19.40;46.44;102034.19;5070589;28;20021;-67
2021/05/20 06:05:36;;;;;;;1.73;1.00;;;;;;;19.42;46.69;102031.44;5071478;28;20032;-67
2021/05/20 06:08:01;;;;;;;2.13;1.10;;;;;;;19.44;46.25;102040.13;5075166;28;20025;-66
2021/05/20 06:10:26;;;;;;;3.58;1.20;;;;;;;19.45;46.52;102036.50;5074508;28;20052;-66
2021/05/20 06:12:52;;;;;;;2.40;1.17;;;;;;;19.48;46.63;102041.59;5075034;28;20028;-67
2021/05/20 06:15:17;;;;;;;2.00;1.00;;;;;;;19.53;46.22;102031.53;5074885;28;20039;-69
2021/05/20 06:17:45;;;;;;;2.72;1.23;;;;;;;19.60;46.69;102036.41;5074228;28;20379;-68
2021/05/20 06:20:11;;;;;;;2.47;1.17;;;;;;;19.64;46.35;102033.44;5074817;28;20074;-67
2021/05/20 06:22:36;;;;;;;2.13;0.98;;;;;;;19.70;46.38;102034.84;5074948;28;20422;-67
2021/05/20 06:25:03;;;;;;;2.63;1.02;;;;;;;19.72;46.47;102040.84;5073734;28;20067;-67
2021/05/20 06:27:28;;;;;;;3.85;1.20;;;;;;;19.75;46.09;102038.00;5074893;28;20047;-65
2021/05/20 06:29:54;;;;;;;2.55;1.20;;;;;;;19.77;46.03;102038.75;5075500;28;20468;-67
2021/05/20 06:32:20;;;;;;;2.53;1.20;;;;;;;19.78;46.27;102043.13;5075006;28;20069;-65
2021/05/20 06:34:45;;;;;;;3.08;1.30;;;;;;;19.79;46.03;102039.53;5075893;28;20036;-65
2021/05/20 06:37:11;;;;;;;2.95;1.40;;;;;;;19.81;46.28;102047.34;5075399;28;20060;-67
2021/05/20 06:39:36;;;;;;;2.72;1.33;;;;;;;19.81;46.52;102045.53;5075526;28;20020;-67
2021/05/20 06:42:01;;;;;;;4.07;1.77;;;;;;;19.79;46.39;102050.09;5075453;28;20410;-71
2021/05/20 06:44:29;;;;;;;4.03;1.60;;;;;;;19.81;46.51;102052.66;5075955;28;20103;-67
2021/05/20 06:46:55;;;;;;;3.05;1.60;;;;;;;19.85;46.66;102056.75;5075710;28;20074;-66
2021/05/20 06:49:23;;;;;;;3.07;1.67;;;;;;;19.88;46.82;102056.53;5075846;28;20669;-65
2021/05/20 06:51:48;;;;;;;3.90;1.80;;;;;;;19.91;46.83;102059.81;5075559;28;20269;-65
2021/05/20 06:54:15;;;;;;;4.03;2.00;;;;;;;19.93;46.63;102065.00;5077354;28;20108;-67
2021/05/20 06:56:42;;;;;;;3.92;2.05;;;;;;;19.92;46.78;102072.09;5077758;28;20292;-67
2021/05/20 07:01:51;;;;;;;4.00;2.13;;;;;;;19.94;46.95;102067.53;5081463;28;20043;-69
2021/05/20 07:04:17;;;;;;;5.45;2.50;;;;;;;19.93;46.88;102059.72;5081225;28;20360;-67
2021/05/20 07:06:42;;;;;;;4.20;1.90;;;;;;;19.93;46.72;102063.22;5077914;28;20025;-68
2021/05/20 07:09:08;;;;;;;5.72;2.35;;;;;;;19.92;46.83;102056.22;5080532;28;20035;-69
2021/05/20 07:11:33;;;;;;;5.00;2.15;;;;;;;19.90;46.88;102060.78;5080594;28;20023;-68
2021/05/20 07:13:59;;;;;;;6.10;2.28;;;;;;;19.88;47.00;102054.72;5080106;28;20032;-67
2021/05/20 07:16:24;;;;;;;5.05;2.03;;;;;;;19.86;47.02;102056.66;5079805;28;20358;-66
2021/05/20 07:18:50;;;;;;;4.70;2.38;;;;;;;19.84;47.16;102057.72;5080386;28;20024;-67
2021/05/20 07:21:15;;;;;;;5.55;2.55;;;;;;;19.82;47.39;102055.19;5079694;28;20036;-66
2021/05/20 07:23:40;;;;;;;4.53;2.85;;;;;;;19.80;47.44;102058.88;5080338;28;20036;-68
2021/05/20 07:26:06;;;;;;;4.73;2.13;;;;;;;19.77;47.64;102053.81;5079163;28;20158;-69
2021/05/20 07:28:34;;;;;;;5.45;2.38;;;;;;;19.77;47.61;102059.94;5078674;28;20270;-68
2021/05/20 07:31:00;;;;;;;6.10;2.40;;;;;;;19.77;47.69;102064.38;5079139;28;20036;-68
2021/05/20 07:33:26;;;;;;;5.28;2.80;;;;;;;19.75;47.72;102059.16;5074957;28;20033;-67
2021/05/20 07:35:52;;;;;;;7.85;2.80;;;;;;;19.73;48.05;102064.56;5073546;28;20133;-68
2021/05/20 07:38:18;;;;;;;4.93;2.58;;;;;;;19.70;47.57;102056.84;5047875;28;20127;-66
2021/05/20 07:40:43;;;;;;;5.35;2.60;;;;;;;19.67;47.77;102051.75;5066501;28;20094;-68
2021/05/20 07:43:08;;;;;;;5.40;3.00;;;;;;;19.66;47.71;102055.38;5074771;28;20067;-66
2021/05/20 07:45:37;;;;;;;4.75;2.75;;;;;;;19.66;48.02;102060.66;5074948;28;20284;-66
2021/05/20 07:48:05;;;;;;;5.55;2.90;;;;;;;19.63;48.17;102060.88;5073512;28;20024;-66
2021/05/20 07:50:30;;;;;;;6.60;3.00;;;;;;;19.62;48.04;102053.03;5074556;28;20074;-67
2021/05/20 07:53:01;;;;;;;6.30;3.08;;;;;;;19.58;48.15;102055.88;5074696;28;20376;-65
2021/05/20 07:55:27;;;;;;;6.50;2.92;;;;;;;19.59;48.07;102062.00;5073644;28;20132;-64
2021/05/20 07:57:53;;;;;;;11.07;3.15;;;;;;;19.58;48.33;102050.59;5074527;28;20107;-68
2021/05/20 08:00:19;;;;;;;5.55;3.10;;;;;;;19.57;48.49;102046.25;5074026;28;20025;-67
2021/05/20 08:05:37;;;;;;;6.97;3.55;;;;;;;19.58;48.75;102049.72;5074409;28;20037;-64
2021/05/20 08:08:15;;;;;;;6.82;3.58;;;;;;;19.58;48.76;102045.31;5073448;28;20070;-67
2021/05/20 08:10:49;;;;;;;7.30;3.70;;;;;;;19.62;48.78;102040.66;5072833;28;20028;-65
2021/05/20 08:13:14;;;;;;;6.90;4.10;;;;;;;19.65;48.70;102043.09;5073261;28;20044;-68
2021/05/20 08:15:40;;;;;;;7.68;3.40;;;;;;;19.71;48.74;102044.44;5073132;28;20388;-66
2021/05/20 08:18:09;;;;;;;6.03;3.55;;;;;;;19.75;48.79;102038.00;5072465;28;20060;-66
2021/05/20 08:20:34;;;;;;;8.05;3.90;;;;;;;19.79;48.91;102030.72;5073261;28;20025;-66
2021/05/20 08:22:59;;;;;;;7.47;4.03;;;;;;;19.84;49.57;102032.09;5072417;28;20376;-67
2021/05/20 08:25:28;;;;;;;7.40;4.10;;;;;;;19.88;50.09;102036.22;5072622;28;20048;-68
2021/05/20 08:27:53;;;;;;;10.05;4.03;;;;;;;19.90;50.07;102025.53;5072854;28;20040;-68
2021/05/20 08:30:22;;;;;;;7.25;4.28;;;;;;;19.91;50.27;102022.78;5071672;28;20344;-65
2021/05/20 08:32:48;;;;;;;8.30;5.30;;;;;;;19.88;50.40;102016.84;5072976;28;20112;-69
2021/05/20 08:35:14;;;;;;;10.40;5.40;;;;;;;19.86;50.58;102011.69;5073181;28;20107;-70
2021/05/20 08:37:41;;;;;;;10.25;5.55;;;;;;;19.88;50.58;102011.56;5072093;28;20032;-69
2021/05/20 08:40:08;;;;;;;8.32;5.70;;;;;;;19.85;50.51;102007.34;5072436;28;20025;-68
2021/05/20 08:42:34;;;;;;;8.45;5.32;;;;;;;19.83;50.45;102003.13;5073018;28;20040;-69
2021/05/20 08:45:08;;;;;;;9.23;5.53;;;;;;;19.84;50.51;101999.53;5072605;28;20376;-69
2021/05/20 08:47:34;;;;;;;10.00;5.22;;;;;;;19.86;50.60;102001.09;5073096;28;20029;-69
2021/05/20 08:50:07;;;;;;;8.75;5.28;;;;;;;19.84;50.71;102005.66;5076244;28;20032;-70
2021/05/20 08:52:34;;;;;;;7.75;4.90;;;;;;;19.81;50.81;101997.94;5074632;28;20387;-69
2021/05/20 08:55:00;;;;;;;12.70;5.07;;;;;;;19.84;50.65;101994.25;5074008;28;20037;-68
2021/05/20 08:57:25;;;;;;;9.35;4.80;;;;;;;19.87;50.55;101994.03;5072852;28;20423;-69
2021/05/20 08:59:51;;;;;;;8.77;4.68;;;;;;;19.85;50.49;101996.78;5073041;28;20460;-70
2021/05/20 09:02:28;;;;;;;9.05;5.53;;;;;;;19.86;50.56;101992.31;5073110;28;20372;-70
2021/05/20 09:05:01;;;;;;;9.15;4.88;;;;;;;19.87;50.76;101991.38;5073206;28;20021;-70
2021/05/20 09:07:32;;;;;;;8.63;4.93;;;;;;;19.86;50.75;101993.16;5073616;28;20111;-69
2021/05/20 09:10:12;;;;;;;8.10;4.93;;;;;;;19.86;50.80;101984.38;5072572;28;20281;-69
2021/05/20 09:12:38;;;;;;;7.47;4.70;;;;;;;19.85;50.56;101987.97;5071767;28;20025;-70
2021/05/20 09:15:27;;;;;;;7.78;4.50;;;;;;;19.81;50.68;101975.94;5072021;28;20021;-69
2021/05/20 09:17:54;;;;;;;8.45;4.88;;;;;;;19.81;50.48;101979.41;5072194;28;20036;-69
2021/05/20 09:20:25;;;;;;;8.60;4.47;;;;;;;19.80;50.63;101976.88;5071102;28;20020;-69
2021/05/20 09:23:03;;;;;;;7.72;4.15;;;;;;;19.78;50.38;101974.34;5071932;28;20459;-70
2021/05/20 09:25:36;;;;;;;10.05;5.22;;;;;;;19.80;50.54;101968.94;5072609;28;20126;-67
2021/05/20 09:28:02;;;;;;;9.70;4.43;;;;;;;19.83;50.53;101969.56;5071649;28;20135;-67
2021/05/20 09:30:32;;;;;;;7.63;4.10;;;;;;;19.85;50.51;101972.09;5072139;28;20021;-69
2021/05/20 09:33:00;;;;;;;6.60;4.05;;;;;;;19.88;50.45;101971.88;5072527;28;20040;-68
2021/05/20 09:35:26;;;;;;;5.78;4.05;;;;;;;19.88;50.57;101966.59;5072077;28;20071;-68
2021/05/20 09:37:59;;;;;;;8.18;4.07;;;;;;;19.88;50.43;101972.72;5072194;28;20036;-71
2021/05/20 09:40:27;;;;;;;6.17;3.87;;;;;;;19.86;50.28;101964.06;5072702;28;20435;-69
2021/05/20 09:42:53;;;;;;;7.22;4.53;;;;;;;19.86;50.73;101963.22;5075790;28;20048;-69
2021/05/20 09:45:23;;;;;;;6.80;4.50;;;;;;;19.87;50.78;101960.47;5075560;28;20439;-68
2021/05/20 09:47:49;;;;;;;7.32;4.40;;;;;;;19.85;50.51;101962.38;5075176;28;20035;-68
2021/05/20 09:50:19;;;;;;;7.05;4.47;;;;;;;19.86;50.62;101953.47;5075703;28;20103;-66
2021/05/20 09:52:44;;;;;;;8.68;5.05;;;;;;;19.87;50.97;101944.59;5075674;28;20360;-65
2021/05/20 09:55:29;;;;;;;14.00;8.38;;;;;;;19.85;50.85;101949.16;5074571;28;20078;-64
2021/05/20 09:57:56;;;;;;;14.77;9.82;;;;;;;19.81;50.60;101944.19;5075358;28;20048;-68
2021/05/20 10:00:25;;;;;;;19.20;12.13;;;;;;;19.81;51.24;101939.75;5075320;28;20028;-66
2021/05/20 10:03:06;;;;;;;18.27;13.02;;;;;;;19.80;51.19;101932.75;5074736;28;20024;-66
2021/05/20 10:05:33;;;;;;;17.90;14.02;;;;;;;19.81;51.27;101929.16;5075723;28;20021;-67
2021/05/20 10:08:07;;;;;;;19.80;14.27;;;;;;;19.80;51.37;101918.69;5075162;28;20020;-65
2021/05/20 10:10:37;;;;;;;19.63;15.30;;;;;;;19.77;51.73;101917.09;5074860;28;20032;-67
2021/05/20 10:13:05;;;;;;;18.75;14.52;;;;;;;19.77;51.51;101919.75;5074902;28;20452;-67
2021/05/20 10:15:33;;;;;;;18.63;14.80;;;;;;;19.79;51.82;101916.97;5074395;28;20464;-67
2021/05/20 10:18:03;;;;;;;20.02;15.15;;;;;;;19.78;52.03;101910.03;5074055;28;20032;-66
2021/05/20 10:20:28;;;;;;;17.50;14.57;;;;;;;19.75;51.55;101895.19;5075120;28;20105;-69
2021/05/20 10:22:56;;;;;;;18.40;14.75;;;;;;;19.73;51.84;101897.94;5074275;28;20528;-65
2021/05/20 10:25:25;;;;;;;17.33;14.70;;;;;;;19.76;51.66;101896.91;5074529;28;20135;-64
2021/05/20 10:27:51;;;;;;;19.13;14.52;;;;;;;19.78;51.73;101889.69;5075128;28;20025;-66
2021/05/20 10:30:18;;;;;;;18.10;13.57;;;;;;;19.77;51.76;101888.00;5074092;28;20406;-69
2021/05/20 10:32:53;;;;;;;18.52;13.70;;;;;;;19.74;51.41;101888.19;5074849;28;20020;-68
2021/05/20 10:35:18;;;;;;;15.48;12.35;;;;;;;19.75;51.83;101879.31;5074469;28;20032;-68
2021/05/20 10:37:44;;;;;;;15.45;11.73;;;;;;;19.78;51.39;101883.56;5074145;28;20028;-67
2021/05/20 10:40:30;;;;;;;16.00;12.05;;;;;;;19.78;51.77;101873.84;5074520;28;20055;-68
2021/05/20 10:43:26;;;;;;;16.17;10.73;;;;;;;19.80;51.90;101876.38;5074781;28;20032;-68
2021/05/20 10:46:19;;;;;;;12.50;10.38;;;;;;;19.79;51.56;101872.88;5065667;28;20029;-68
2021/05/20 10:48:55;;;;;;;12.60;10.38;;;;;;;19.82;51.61;101877.09;5074710;28;20468;-67
2021/05/20 10:51:24;;;;;;;11.55;9.68;;;;;;;19.80;51.48;101868.44;5073471;28;20032;-67
2021/05/20 10:53:54;;;;;;;12.05;9.35;;;;;;;19.79;51.36;101872.03;5073972;28;20023;-67
2021/05/20 10:56:22;;;;;;;10.02;8.30;;;;;;;19.80;51.60;101860.50;5074416;28;20029;-66
2021/05/20 10:58:48;;;;;;;11.25;8.50;;;;;;;19.74;51.17;101854.66;5073840;28;20028;-66
2021/05/20 11:01:19;;;;;;;12.93;9.40;;;;;;;19.77;51.32;101853.63;5074318;28;20028;-67
2021/05/20 11:03:59;;;;;;;10.90;8.02;;;;;;;19.75;51.25;101844.94;5074315;28;20376;-66
2021/05/20 11:06:51;;;;;;;9.88;7.35;;;;;;;19.78;51.37;101833.31;5073320;28;20037;-66
2021/05/20 11:09:16;;;;;;;9.65;7.38;;;;;;;19.77;51.38;101840.38;5073398;28;20039;-63
2021/05/20 11:11:41;;;;;;;9.68;6.80;;;;;;;19.78;51.23;101834.16;5073658;28;20024;-64
2021/05/20 11:14:13;;;;;;;8.77;7.27;;;;;;;19.80;51.33;101832.22;5073839;28;20032;-64
2021/05/20 11:16:39;;;;;;;9.07;6.68;;;;;;;19.80;51.16;101831.41;5074303;28;20020;-66
2021/05/20 11:19:23;;;;;;;9.13;6.72;;;;;;;19.80;51.10;101828.75;5073044;28;20020;-68
2021/05/20 11:22:11;;;;;;;10.23;6.32;;;;;;;19.79;51.05;101827.06;5074292;28;20348;-68
2021/05/20 11:24:41;;;;;;;7.97;6.22;;;;;;;19.79;51.33;101825.28;5074108;28;20052;-66
2021/05/20 11:27:19;;;;;;;7.53;6.00;;;;;;;19.78;50.93;101820.94;5072846;28;20036;-65
2021/05/20 11:29:48;;;;;;;8.50;6.07;;;;;;;19.78;51.12;101817.44;5074105;28;20031;-67
2021/05/20 11:32:30;;;;;;;8.70;5.60;;;;;;;19.77;51.14;101810.47;5073790;28;20096;-67